<?xml version="1.0" encoding="UTF-8" standalone="no" ?>
<gpx xmlns="http://www.topografix.com/GPX/1/1" xmlns:xsi="http://www.w3.org/2001/XMLSchema-instance" xsi:schemaLocation="http://www.topografix.com/GPX/1/1 http://www.topografix.com/GPX/1/1/gpx.xsd" version="1.1" creator="VisuGPX - https://www.visugpx.com">
  <metadata>
    <name>15211672-pionsat</name>
  </metadata>
  <trk>
    <name><![CDATA[15211672-pionsat]]></name>
    <trkseg>
      <trkpt lat="46.10256" lon="2.72027">
        <ele>584</ele>
        <time>2022-07-26T06:45:05Z</time>
      </trkpt>
      <trkpt lat="46.10232" lon="2.72193">
        <ele>595</ele>
        <time>2022-07-26T06:47:42Z</time>
      </trkpt>
      <trkpt lat="46.10187" lon="2.72303">
        <ele>598</ele>
        <time>2022-07-26T06:49:40Z</time>
      </trkpt>
      <trkpt lat="46.10183" lon="2.72456">
        <ele>603</ele>
        <time>2022-07-26T06:52:02Z</time>
      </trkpt>
      <trkpt lat="46.10171" lon="2.7261">
        <ele>603</ele>
        <time>2022-07-26T06:54:25Z</time>
      </trkpt>
      <trkpt lat="46.10174" lon="2.72649">
        <ele>606</ele>
        <time>2022-07-26T06:55:01Z</time>
      </trkpt>
      <trkpt lat="46.1015" lon="2.72706">
        <ele>610</ele>
        <time>2022-07-26T06:56:03Z</time>
      </trkpt>
      <trkpt lat="46.10108" lon="2.72712">
        <ele>610</ele>
        <time>2022-07-26T06:56:59Z</time>
      </trkpt>
      <trkpt lat="46.10022" lon="2.72972">
        <ele>624</ele>
        <time>2022-07-26T07:01:26Z</time>
      </trkpt>
      <trkpt lat="46.09937" lon="2.73171">
        <ele>631</ele>
        <time>2022-07-26T07:05:02Z</time>
      </trkpt>
      <trkpt lat="46.09936" lon="2.73439">
        <ele>651</ele>
        <time>2022-07-26T07:09:10Z</time>
      </trkpt>
      <trkpt lat="46.09949" lon="2.73704">
        <ele>660</ele>
        <time>2022-07-26T07:13:16Z</time>
      </trkpt>
      <trkpt lat="46.0983" lon="2.74096">
        <ele>683</ele>
        <time>2022-07-26T07:19:52Z</time>
      </trkpt>
      <trkpt lat="46.09774" lon="2.74246">
        <ele>697</ele>
        <time>2022-07-26T07:22:30Z</time>
      </trkpt>
      <trkpt lat="46.09694" lon="2.74334">
        <ele>707</ele>
        <time>2022-07-26T07:24:44Z</time>
      </trkpt>
      <trkpt lat="46.09592" lon="2.74409">
        <ele>714</ele>
        <time>2022-07-26T07:27:17Z</time>
      </trkpt>
      <trkpt lat="46.09542" lon="2.74536">
        <ele>720</ele>
        <time>2022-07-26T07:29:32Z</time>
      </trkpt>
      <trkpt lat="46.09579" lon="2.74644">
        <ele>726</ele>
        <time>2022-07-26T07:31:23Z</time>
      </trkpt>
      <trkpt lat="46.09658" lon="2.74525">
        <ele>735</ele>
        <time>2022-07-26T07:33:56Z</time>
      </trkpt>
      <trkpt lat="46.09924" lon="2.74377">
        <ele>723</ele>
        <time>2022-07-26T07:40:16Z</time>
      </trkpt>
      <trkpt lat="46.10132" lon="2.74368">
        <ele>726</ele>
        <time>2022-07-26T07:44:54Z</time>
      </trkpt>
      <trkpt lat="46.10247" lon="2.74564">
        <ele>712</ele>
        <time>2022-07-26T07:48:52Z</time>
      </trkpt>
      <trkpt lat="46.10346" lon="2.7452">
        <ele>699</ele>
        <time>2022-07-26T07:51:10Z</time>
      </trkpt>
      <trkpt lat="46.10286" lon="2.74699">
        <ele>700</ele>
        <time>2022-07-26T07:54:14Z</time>
      </trkpt>
      <trkpt lat="46.10231" lon="2.74825">
        <ele>706</ele>
        <time>2022-07-26T07:56:32Z</time>
      </trkpt>
      <trkpt lat="46.10237" lon="2.74947">
        <ele>697</ele>
        <time>2022-07-26T07:58:25Z</time>
      </trkpt>
      <trkpt lat="46.10174" lon="2.7509">
        <ele>688</ele>
        <time>2022-07-26T08:01:01Z</time>
      </trkpt>
      <trkpt lat="46.10075" lon="2.75121">
        <ele>702</ele>
        <time>2022-07-26T08:03:17Z</time>
      </trkpt>
      <trkpt lat="46.10008" lon="2.75286">
        <ele>703</ele>
        <time>2022-07-26T08:06:14Z</time>
      </trkpt>
      <trkpt lat="46.09779" lon="2.7513">
        <ele>714</ele>
        <time>2022-07-26T08:11:52Z</time>
      </trkpt>
      <trkpt lat="46.09748" lon="2.7503">
        <ele>723</ele>
        <time>2022-07-26T08:13:33Z</time>
      </trkpt>
      <trkpt lat="46.09637" lon="2.74942">
        <ele>722</ele>
        <time>2022-07-26T08:16:22Z</time>
      </trkpt>
      <trkpt lat="46.09504" lon="2.75012">
        <ele>724</ele>
        <time>2022-07-26T08:19:31Z</time>
      </trkpt>
      <trkpt lat="46.09435" lon="2.74942">
        <ele>724</ele>
        <time>2022-07-26T08:21:23Z</time>
      </trkpt>
      <trkpt lat="46.09341" lon="2.7509">
        <ele>751</ele>
        <time>2022-07-26T08:24:29Z</time>
      </trkpt>
      <trkpt lat="46.09245" lon="2.75138">
        <ele>755</ele>
        <time>2022-07-26T08:26:45Z</time>
      </trkpt>
      <trkpt lat="46.08967" lon="2.74999">
        <ele>763</ele>
        <time>2022-07-26T08:33:17Z</time>
      </trkpt>
      <trkpt lat="46.08816" lon="2.74954">
        <ele>755</ele>
        <time>2022-07-26T08:36:43Z</time>
      </trkpt>
      <trkpt lat="46.08659" lon="2.74738">
        <ele>742</ele>
        <time>2022-07-26T08:41:33Z</time>
      </trkpt>
      <trkpt lat="46.08498" lon="2.74711">
        <ele>743</ele>
        <time>2022-07-26T08:45:09Z</time>
      </trkpt>
      <trkpt lat="46.08113" lon="2.74366">
        <ele>742</ele>
        <time>2022-07-26T08:55:14Z</time>
      </trkpt>
      <trkpt lat="46.0806" lon="2.7436">
        <ele>741</ele>
        <time>2022-07-26T08:56:25Z</time>
      </trkpt>
      <trkpt lat="46.07923" lon="2.74361">
        <ele>745</ele>
        <time>2022-07-26T08:59:28Z</time>
      </trkpt>
      <trkpt lat="46.07801" lon="2.74127">
        <ele>769</ele>
        <time>2022-07-26T09:03:59Z</time>
      </trkpt>
      <trkpt lat="46.07691" lon="2.73994">
        <ele>781</ele>
        <time>2022-07-26T09:07:10Z</time>
      </trkpt>
      <trkpt lat="46.07573" lon="2.73749">
        <ele>792</ele>
        <time>2022-07-26T09:11:46Z</time>
      </trkpt>
      <trkpt lat="46.07399" lon="2.73467">
        <ele>805</ele>
        <time>2022-07-26T09:17:36Z</time>
      </trkpt>
      <trkpt lat="46.07381" lon="2.73281">
        <ele>795</ele>
        <time>2022-07-26T09:20:30Z</time>
      </trkpt>
      <trkpt lat="46.07229" lon="2.7311">
        <ele>784</ele>
        <time>2022-07-26T09:24:47Z</time>
      </trkpt>
      <trkpt lat="46.06889" lon="2.72713">
        <ele>760</ele>
        <time>2022-07-26T09:34:31Z</time>
      </trkpt>
      <trkpt lat="46.06683" lon="2.72501">
        <ele>757</ele>
        <time>2022-07-26T09:40:09Z</time>
      </trkpt>
      <trkpt lat="46.06624" lon="2.72001">
        <ele>740</ele>
        <time>2022-07-26T09:47:58Z</time>
      </trkpt>
      <trkpt lat="46.06959" lon="2.71866">
        <ele>750</ele>
        <time>2022-07-26T09:55:42Z</time>
      </trkpt>
      <trkpt lat="46.06853" lon="2.71536">
        <ele>758</ele>
        <time>2022-07-26T10:01:19Z</time>
      </trkpt>
      <trkpt lat="46.06473" lon="2.70947">
        <ele>736</ele>
        <time>2022-07-26T10:13:44Z</time>
      </trkpt>
      <trkpt lat="46.06208" lon="2.70921">
        <ele>740</ele>
        <time>2022-07-26T10:19:38Z</time>
      </trkpt>
      <trkpt lat="46.05988" lon="2.70644">
        <ele>719</ele>
        <time>2022-07-26T10:26:08Z</time>
      </trkpt>
      <trkpt lat="46.05961" lon="2.7013">
        <ele>713</ele>
        <time>2022-07-26T10:34:05Z</time>
      </trkpt>
      <trkpt lat="46.06226" lon="2.6943">
        <ele>711</ele>
        <time>2022-07-26T10:46:24Z</time>
      </trkpt>
      <trkpt lat="46.06482" lon="2.69233">
        <ele>680</ele>
        <time>2022-07-26T10:52:51Z</time>
      </trkpt>
      <trkpt lat="46.06565" lon="2.69721">
        <ele>677</ele>
        <time>2022-07-26T11:00:36Z</time>
      </trkpt>
      <trkpt lat="46.06803" lon="2.69879">
        <ele>666</ele>
        <time>2022-07-26T11:06:26Z</time>
      </trkpt>
      <trkpt lat="46.06739" lon="2.70169">
        <ele>664</ele>
        <time>2022-07-26T11:11:08Z</time>
      </trkpt>
      <trkpt lat="46.06931" lon="2.70446">
        <ele>688</ele>
        <time>2022-07-26T11:17:10Z</time>
      </trkpt>
      <trkpt lat="46.07205" lon="2.70156">
        <ele>658</ele>
        <time>2022-07-26T11:24:44Z</time>
      </trkpt>
      <trkpt lat="46.0738" lon="2.69955">
        <ele>635</ele>
        <time>2022-07-26T11:29:43Z</time>
      </trkpt>
      <trkpt lat="46.07614" lon="2.69689">
        <ele>607</ele>
        <time>2022-07-26T11:36:20Z</time>
      </trkpt>
      <trkpt lat="46.07922" lon="2.69778">
        <ele>590</ele>
        <time>2022-07-26T11:43:19Z</time>
      </trkpt>
      <trkpt lat="46.08125" lon="2.69439">
        <ele>580</ele>
        <time>2022-07-26T11:50:14Z</time>
      </trkpt>
      <trkpt lat="46.08606" lon="2.69262">
        <ele>567</ele>
        <time>2022-07-26T12:01:16Z</time>
      </trkpt>
      <trkpt lat="46.09088" lon="2.69262">
        <ele>578</ele>
        <time>2022-07-26T12:12:00Z</time>
      </trkpt>
      <trkpt lat="46.09248" lon="2.69384">
        <ele>584</ele>
        <time>2022-07-26T12:16:01Z</time>
      </trkpt>
      <trkpt lat="46.09447" lon="2.69273">
        <ele>581</ele>
        <time>2022-07-26T12:20:46Z</time>
      </trkpt>
      <trkpt lat="46.095" lon="2.69185">
        <ele>587</ele>
        <time>2022-07-26T12:22:34Z</time>
      </trkpt>
      <trkpt lat="46.09566" lon="2.69084">
        <ele>590</ele>
        <time>2022-07-26T12:24:42Z</time>
      </trkpt>
      <trkpt lat="46.09766" lon="2.69494">
        <ele>579</ele>
        <time>2022-07-26T12:32:26Z</time>
      </trkpt>
      <trkpt lat="46.10143" lon="2.69561">
        <ele>559</ele>
        <time>2022-07-26T12:40:53Z</time>
      </trkpt>
      <trkpt lat="46.10035" lon="2.7026">
        <ele>538</ele>
        <time>2022-07-26T12:51:56Z</time>
      </trkpt>
      <trkpt lat="46.09651" lon="2.71103">
        <ele>557</ele>
        <time>2022-07-26T13:07:29Z</time>
      </trkpt>
      <trkpt lat="46.09651" lon="2.71225">
        <ele>560</ele>
        <time>2022-07-26T13:09:22Z</time>
      </trkpt>
      <trkpt lat="46.09582" lon="2.71269">
        <ele>561</ele>
        <time>2022-07-26T13:11:02Z</time>
      </trkpt>
      <trkpt lat="46.09759" lon="2.71735">
        <ele>579</ele>
        <time>2022-07-26T13:19:14Z</time>
      </trkpt>
      <trkpt lat="46.09925" lon="2.71935">
        <ele>575</ele>
        <time>2022-07-26T13:24:03Z</time>
      </trkpt>
      <trkpt lat="46.10161" lon="2.72084">
        <ele>581</ele>
        <time>2022-07-26T13:29:47Z</time>
      </trkpt>
      <trkpt lat="46.10331" lon="2.72047">
        <ele>589</ele>
        <time>2022-07-26T13:33:36Z</time>
      </trkpt>
    </trkseg>
  </trk>
</gpx>